sensor_id;sensor_type;location;lat;lon;timestamp;temperature;humidity
43987;DHT22;29650;47.378;8.300;2023-06-10T00:01:38;21.90;41.30
43987;DHT22;29650;47.378;8.300;2023-06-10T00:04:05;21.80;41.40
43987;DHT22;29650;47.378;8.300;2023-06-10T00:06:32;21.90;41.20
43987;DHT22;29650;47.378;8.300;2023-06-10T00:09:01;21.70;42.00
43987;DHT22;29650;47.378;8.300;2023-06-10T00:11:30;21.50;42.50
43987;DHT22;29650;47.378;8.300;2023-06-10T00:13:57;21.80;42.40
43987;DHT22;29650;47.378;8.300;2023-06-10T00:16:26;21.50;42.70
43987;DHT22;29650;47.378;8.300;2023-06-10T00:18:53;21.20;44.30
43987;DHT22;29650;47.378;8.300;2023-06-10T00:21:21;21.40;44.40
43987;DHT22;29650;47.378;8.300;2023-06-10T00:23:50;21.50;44.00
43987;DHT22;29650;47.378;8.300;2023-06-10T00:26:17;21.20;45.70
43987;DHT22;29650;47.378;8.300;2023-06-10T00:28:44;21.10;46.50
43987;DHT22;29650;47.378;8.300;2023-06-10T00:31:11;21.20;45.90
43987;DHT22;29650;47.378;8.300;2023-06-10T00:33:40;20.40;45.50
43987;DHT22;29650;47.378;8.300;2023-06-10T00:36:06;21.30;45.30
43987;DHT22;29650;47.378;8.300;2023-06-10T00:38:33;21.20;45.20
43987;DHT22;29650;47.378;8.300;2023-06-10T00:41:00;21.10;45.50
43987;DHT22;29650;47.378;8.300;2023-06-10T00:43:27;21.00;46.50
43987;DHT22;29650;47.378;8.300;2023-06-10T00:45:54;20.80;47.10
43987;DHT22;29650;47.378;8.300;2023-06-10T00:48:21;20.90;47.70
43987;DHT22;29650;47.378;8.300;2023-06-10T00:50:50;20.90;47.30
43987;DHT22;29650;47.378;8.300;2023-06-10T00:53:17;20.90;47.60
43987;DHT22;29650;47.378;8.300;2023-06-10T00:55:44;20.90;47.60
43987;DHT22;29650;47.378;8.300;2023-06-10T00:58:11;20.80;48.60
43987;DHT22;29650;47.378;8.300;2023-06-10T01:00:38;20.80;48.40
43987;DHT22;29650;47.378;8.300;2023-06-10T01:03:05;20.60;48.90
43987;DHT22;29650;47.378;8.300;2023-06-10T01:05:33;20.60;48.00
43987;DHT22;29650;47.378;8.300;2023-06-10T01:08:07;20.60;48.70
43987;DHT22;29650;47.378;8.300;2023-06-10T01:10:39;20.70;48.10
43987;DHT22;29650;47.378;8.300;2023-06-10T01:13:10;20.60;48.60
43987;DHT22;29650;47.378;8.300;2023-06-10T01:15:39;20.40;49.60
43987;DHT22;29650;47.378;8.300;2023-06-10T01:18:07;20.50;49.80
43987;DHT22;29650;47.378;8.300;2023-06-10T01:20:36;20.30;49.90
43987;DHT22;29650;47.378;8.300;2023-06-10T01:23:07;20.30;51.10
43987;DHT22;29650;47.378;8.300;2023-06-10T01:25:37;20.30;51.70
43987;DHT22;29650;47.378;8.300;2023-06-10T01:28:10;20.20;51.70
43987;DHT22;29650;47.378;8.300;2023-06-10T01:30:43;20.00;52.20
43987;DHT22;29650;47.378;8.300;2023-06-10T01:33:13;20.20;51.90
43987;DHT22;29650;47.378;8.300;2023-06-10T01:35:44;20.40;52.00
43987;DHT22;29650;47.378;8.300;2023-06-10T01:38:14;19.90;53.70
43987;DHT22;29650;47.378;8.300;2023-06-10T01:40:42;19.70;56.40
43987;DHT22;29650;47.378;8.300;2023-06-10T01:43:09;19.50;57.80
43987;DHT22;29650;47.378;8.300;2023-06-10T01:45:36;19.50;59.30
43987;DHT22;29650;47.378;8.300;2023-06-10T01:48:04;19.50;60.30
43987;DHT22;29650;47.378;8.300;2023-06-10T01:50:31;19.50;60.50
43987;DHT22;29650;47.378;8.300;2023-06-10T01:52:59;19.60;59.90
43987;DHT22;29650;47.378;8.300;2023-06-10T01:55:27;19.60;60.50
43987;DHT22;29650;47.378;8.300;2023-06-10T01:57:55;19.50;61.60
43987;DHT22;29650;47.378;8.300;2023-06-10T02:00:21;19.30;62.30
43987;DHT22;29650;47.378;8.300;2023-06-10T02:02:49;19.40;62.50
43987;DHT22;29650;47.378;8.300;2023-06-10T02:05:16;19.30;62.30
43987;DHT22;29650;47.378;8.300;2023-06-10T02:07:43;19.40;62.30
43987;DHT22;29650;47.378;8.300;2023-06-10T02:10:10;19.30;62.50
43987;DHT22;29650;47.378;8.300;2023-06-10T02:12:38;19.40;62.00
43987;DHT22;29650;47.378;8.300;2023-06-10T02:15:05;19.50;62.00
43987;DHT22;29650;47.378;8.300;2023-06-10T02:17:32;19.50;62.20
43987;DHT22;29650;47.378;8.300;2023-06-10T02:19:59;19.40;63.10
43987;DHT22;29650;47.378;8.300;2023-06-10T02:22:32;19.30;63.80
43987;DHT22;29650;47.378;8.300;2023-06-10T02:24:59;19.20;64.20
43987;DHT22;29650;47.378;8.300;2023-06-10T02:27:26;19.10;64.20
43987;DHT22;29650;47.378;8.300;2023-06-10T02:29:54;19.10;64.30
43987;DHT22;29650;47.378;8.300;2023-06-10T02:32:21;19.00;64.90
43987;DHT22;29650;47.378;8.300;2023-06-10T02:34:48;19.00;65.00
43987;DHT22;29650;47.378;8.300;2023-06-10T02:37:16;19.10;64.90
43987;DHT22;29650;47.378;8.300;2023-06-10T02:39:43;18.90;65.80
43987;DHT22;29650;47.378;8.300;2023-06-10T02:42:10;18.80;66.30
43987;DHT22;29650;47.378;8.300;2023-06-10T02:44:37;18.70;67.30
43987;DHT22;29650;47.378;8.300;2023-06-10T02:47:06;18.70;66.80
43987;DHT22;29650;47.378;8.300;2023-06-10T02:49:33;18.70;67.40
43987;DHT22;29650;47.378;8.300;2023-06-10T02:52:00;18.60;68.20
43987;DHT22;29650;47.378;8.300;2023-06-10T02:54:27;18.70;68.30
43987;DHT22;29650;47.378;8.300;2023-06-10T02:56:54;18.60;68.80
43987;DHT22;29650;47.378;8.300;2023-06-10T02:59:21;18.50;69.40
43987;DHT22;29650;47.378;8.300;2023-06-10T03:01:48;18.40;69.80
43987;DHT22;29650;47.378;8.300;2023-06-10T03:04:17;18.40;70.90
43987;DHT22;29650;47.378;8.300;2023-06-10T03:06:44;18.50;70.00
43987;DHT22;29650;47.378;8.300;2023-06-10T03:09:12;18.40;70.00
43987;DHT22;29650;47.378;8.300;2023-06-10T03:11:39;18.40;70.40
43987;DHT22;29650;47.378;8.300;2023-06-10T03:14:06;18.40;70.60
43987;DHT22;29650;47.378;8.300;2023-06-10T03:16:33;18.40;70.80
43987;DHT22;29650;47.378;8.300;2023-06-10T03:19:00;18.30;71.60
43987;DHT22;29650;47.378;8.300;2023-06-10T03:21:28;18.30;70.20
43987;DHT22;29650;47.378;8.300;2023-06-10T03:23:55;18.50;69.50
43987;DHT22;29650;47.378;8.300;2023-06-10T03:26:22;18.40;70.10
43987;DHT22;29650;47.378;8.300;2023-06-10T03:28:49;18.30;71.20
43987;DHT22;29650;47.378;8.300;2023-06-10T03:31:16;18.30;71.60
43987;DHT22;29650;47.378;8.300;2023-06-10T03:33:43;18.20;72.20
43987;DHT22;29650;47.378;8.300;2023-06-10T03:36:10;18.20;72.40
43987;DHT22;29650;47.378;8.300;2023-06-10T03:38:38;18.20;72.60
43987;DHT22;29650;47.378;8.300;2023-06-10T03:41:05;18.10;73.00
43987;DHT22;29650;47.378;8.300;2023-06-10T03:43:32;18.20;73.10
43987;DHT22;29650;47.378;8.300;2023-06-10T03:45:59;18.20;72.30
43987;DHT22;29650;47.378;8.300;2023-06-10T03:48:26;18.10;72.60
43987;DHT22;29650;47.378;8.300;2023-06-10T03:50:53;18.00;73.70
43987;DHT22;29650;47.378;8.300;2023-06-10T03:53:20;18.10;74.00
43987;DHT22;29650;47.378;8.300;2023-06-10T03:55:49;18.10;73.90
43987;DHT22;29650;47.378;8.300;2023-06-10T03:58:16;18.10;74.40
43987;DHT22;29650;47.378;8.300;2023-06-10T04:00:43;17.90;75.40
43987;DHT22;29650;47.378;8.300;2023-06-10T04:03:11;17.90;78.10
43987;DHT22;29650;47.378;8.300;2023-06-10T04:05:40;17.70;80.20
43987;DHT22;29650;47.378;8.300;2023-06-10T04:08:07;17.90;80.40
43987;DHT22;29650;47.378;8.300;2023-06-10T04:10:34;17.90;80.20
43987;DHT22;29650;47.378;8.300;2023-06-10T04:13:02;17.90;78.70
43987;DHT22;29650;47.378;8.300;2023-06-10T04:15:30;17.90;76.40
43987;DHT22;29650;47.378;8.300;2023-06-10T04:17:59;18.00;75.70
43987;DHT22;29650;47.378;8.300;2023-06-10T04:20:26;18.20;75.00
43987;DHT22;29650;47.378;8.300;2023-06-10T04:22:53;18.20;76.00
43987;DHT22;29650;47.378;8.300;2023-06-10T04:25:20;18.20;76.30
43987;DHT22;29650;47.378;8.300;2023-06-10T04:27:48;18.30;75.60
43987;DHT22;29650;47.378;8.300;2023-06-10T04:30:16;18.30;75.40
43987;DHT22;29650;47.378;8.300;2023-06-10T04:32:43;18.50;72.50
43987;DHT22;29650;47.378;8.300;2023-06-10T04:35:12;18.70;72.30
43987;DHT22;29650;47.378;8.300;2023-06-10T04:37:39;18.90;72.60
43987;DHT22;29650;47.378;8.300;2023-06-10T04:40:07;19.00;72.80
43987;DHT22;29650;47.378;8.300;2023-06-10T04:42:35;19.00;74.60
43987;DHT22;29650;47.378;8.300;2023-06-10T04:45:02;19.00;76.20
43987;DHT22;29650;47.378;8.300;2023-06-10T04:47:31;19.10;77.10
43987;DHT22;29650;47.378;8.300;2023-06-10T04:49:58;19.30;76.00
43987;DHT22;29650;47.378;8.300;2023-06-10T04:52:25;19.30;75.70
43987;DHT22;29650;47.378;8.300;2023-06-10T04:54:52;19.40;77.60
43987;DHT22;29650;47.378;8.300;2023-06-10T04:57:20;19.40;77.40
43987;DHT22;29650;47.378;8.300;2023-06-10T04:59:47;19.50;76.60
43987;DHT22;29650;47.378;8.300;2023-06-10T05:02:14;19.40;77.30
43987;DHT22;29650;47.378;8.300;2023-06-10T05:04:42;19.50;76.40
43987;DHT22;29650;47.378;8.300;2023-06-10T05:07:09;19.60;75.70
43987;DHT22;29650;47.378;8.300;2023-06-10T05:09:36;19.70;74.00
43987;DHT22;29650;47.378;8.300;2023-06-10T05:12:03;19.80;74.70
43987;DHT22;29650;47.378;8.300;2023-06-10T05:14:30;20.10;73.00
43987;DHT22;29650;47.378;8.300;2023-06-10T05:16:58;20.00;71.00
43987;DHT22;29650;47.378;8.300;2023-06-10T05:19:24;20.30;69.10
43987;DHT22;29650;47.378;8.300;2023-06-10T05:21:54;20.60;66.70
43987;DHT22;29650;47.378;8.300;2023-06-10T05:24:21;20.90;61.60
43987;DHT22;29650;47.378;8.300;2023-06-10T05:26:48;20.70;60.60
43987;DHT22;29650;47.378;8.300;2023-06-10T05:29:15;21.00;60.10
43987;DHT22;29650;47.378;8.300;2023-06-10T05:31:42;21.00;59.40
43987;DHT22;29650;47.378;8.300;2023-06-10T05:34:09;21.10;59.60
43987;DHT22;29650;47.378;8.300;2023-06-10T05:36:36;21.30;58.50
43987;DHT22;29650;47.378;8.300;2023-06-10T05:39:05;21.30;55.50
43987;DHT22;29650;47.378;8.300;2023-06-10T05:41:31;21.40;54.80
43987;DHT22;29650;47.378;8.300;2023-06-10T05:43:58;21.40;54.70
43987;DHT22;29650;47.378;8.300;2023-06-10T05:46:25;21.50;54.90
43987;DHT22;29650;47.378;8.300;2023-06-10T05:48:52;21.40;55.10
43987;DHT22;29650;47.378;8.300;2023-06-10T05:51:19;21.40;56.70
43987;DHT22;29650;47.378;8.300;2023-06-10T05:53:46;21.50;56.60
43987;DHT22;29650;47.378;8.300;2023-06-10T05:56:15;21.60;56.60
43987;DHT22;29650;47.378;8.300;2023-06-10T05:58:41;21.60;57.00
43987;DHT22;29650;47.378;8.300;2023-06-10T06:01:08;21.60;58.10
43987;DHT22;29650;47.378;8.300;2023-06-10T06:03:35;21.30;59.40
43987;DHT22;29650;47.378;8.300;2023-06-10T06:06:03;21.60;59.80
43987;DHT22;29650;47.378;8.300;2023-06-10T06:08:30;21.80;58.90
43987;DHT22;29650;47.378;8.300;2023-06-10T06:10:57;21.70;59.80
43987;DHT22;29650;47.378;8.300;2023-06-10T06:13:25;21.60;60.60
43987;DHT22;29650;47.378;8.300;2023-06-10T06:15:52;21.60;60.50
43987;DHT22;29650;47.378;8.300;2023-06-10T06:18:19;21.60;61.20
43987;DHT22;29650;47.378;8.300;2023-06-10T06:20:46;21.60;61.30
43987;DHT22;29650;47.378;8.300;2023-06-10T06:23:13;21.70;61.40
43987;DHT22;29650;47.378;8.300;2023-06-10T06:25:39;21.90;61.10
43987;DHT22;29650;47.378;8.300;2023-06-10T06:28:06;21.90;59.90
43987;DHT22;29650;47.378;8.300;2023-06-10T06:30:36;22.00;58.90
43987;DHT22;29650;47.378;8.300;2023-06-10T06:33:03;22.00;59.10
43987;DHT22;29650;47.378;8.300;2023-06-10T06:35:31;21.90;56.90
43987;DHT22;29650;47.378;8.300;2023-06-10T06:37:58;21.80;57.90
43987;DHT22;29650;47.378;8.300;2023-06-10T06:40:25;22.00;57.10
43987;DHT22;29650;47.378;8.300;2023-06-10T06:42:52;21.90;55.30
43987;DHT22;29650;47.378;8.300;2023-06-10T06:45:19;21.70;54.70
43987;DHT22;29650;47.378;8.300;2023-06-10T06:47:47;21.80;53.30
43987;DHT22;29650;47.378;8.300;2023-06-10T06:50:15;21.90;53.90
43987;DHT22;29650;47.378;8.300;2023-06-10T06:52:42;22.00;55.00
43987;DHT22;29650;47.378;8.300;2023-06-10T06:55:09;22.30;51.60
43987;DHT22;29650;47.378;8.300;2023-06-10T06:57:36;22.30;50.20
43987;DHT22;29650;47.378;8.300;2023-06-10T07:00:05;22.40;50.50
43987;DHT22;29650;47.378;8.300;2023-06-10T07:02:33;22.40;50.50
43987;DHT22;29650;47.378;8.300;2023-06-10T07:05:02;22.50;50.10
43987;DHT22;29650;47.378;8.300;2023-06-10T07:07:29;22.00;49.90
43987;DHT22;29650;47.378;8.300;2023-06-10T07:09:56;22.30;50.70
43987;DHT22;29650;47.378;8.300;2023-06-10T07:12:23;22.40;51.30
43987;DHT22;29650;47.378;8.300;2023-06-10T07:14:50;22.40;48.90
43987;DHT22;29650;47.378;8.300;2023-06-10T07:17:17;22.60;48.20
43987;DHT22;29650;47.378;8.300;2023-06-10T07:19:44;22.60;48.60
43987;DHT22;29650;47.378;8.300;2023-06-10T07:22:14;22.70;47.70
43987;DHT22;29650;47.378;8.300;2023-06-10T07:24:41;22.70;47.20
43987;DHT22;29650;47.378;8.300;2023-06-10T07:27:08;22.70;47.30
43987;DHT22;29650;47.378;8.300;2023-06-10T07:29:36;22.60;47.50
43987;DHT22;29650;47.378;8.300;2023-06-10T07:32:03;22.70;46.80
43987;DHT22;29650;47.378;8.300;2023-06-10T07:34:30;22.80;46.50
43987;DHT22;29650;47.378;8.300;2023-06-10T07:36:57;22.80;45.40
43987;DHT22;29650;47.378;8.300;2023-06-10T07:39:25;22.90;45.00
43987;DHT22;29650;47.378;8.300;2023-06-10T07:41:52;23.10;44.60
43987;DHT22;29650;47.378;8.300;2023-06-10T07:44:22;23.10;44.50
43987;DHT22;29650;47.378;8.300;2023-06-10T07:46:49;23.30;44.20
43987;DHT22;29650;47.378;8.300;2023-06-10T07:49:16;23.10;43.40
43987;DHT22;29650;47.378;8.300;2023-06-10T07:51:43;23.30;43.90
43987;DHT22;29650;47.378;8.300;2023-06-10T07:54:10;23.30;43.50
43987;DHT22;29650;47.378;8.300;2023-06-10T07:56:40;23.20;43.10
43987;DHT22;29650;47.378;8.300;2023-06-10T07:59:07;23.20;42.50
43987;DHT22;29650;47.378;8.300;2023-06-10T08:01:34;23.50;41.90
43987;DHT22;29650;47.378;8.300;2023-06-10T08:04:01;23.50;42.60
43987;DHT22;29650;47.378;8.300;2023-06-10T08:06:28;23.20;42.50
43987;DHT22;29650;47.378;8.300;2023-06-10T08:08:55;23.50;42.20
43987;DHT22;29650;47.378;8.300;2023-06-10T08:11:22;23.70;41.30
43987;DHT22;29650;47.378;8.300;2023-06-10T08:13:50;23.70;41.50
43987;DHT22;29650;47.378;8.300;2023-06-10T08:16:17;23.60;42.30
43987;DHT22;29650;47.378;8.300;2023-06-10T08:18:44;23.70;41.70
43987;DHT22;29650;47.378;8.300;2023-06-10T08:21:11;23.60;43.40
43987;DHT22;29650;47.378;8.300;2023-06-10T08:23:38;23.60;42.00
43987;DHT22;29650;47.378;8.300;2023-06-10T08:26:05;23.60;41.90
43987;DHT22;29650;47.378;8.300;2023-06-10T08:28:33;23.90;41.40
43987;DHT22;29650;47.378;8.300;2023-06-10T08:31:02;23.80;40.60
43987;DHT22;29650;47.378;8.300;2023-06-10T08:33:29;23.60;40.80
43987;DHT22;29650;47.378;8.300;2023-06-10T08:35:55;24.10;40.80
43987;DHT22;29650;47.378;8.300;2023-06-10T08:38:22;24.30;39.50
43987;DHT22;29650;47.378;8.300;2023-06-10T08:40:51;24.30;38.70
43987;DHT22;29650;47.378;8.300;2023-06-10T08:43:26;24.50;38.20
43987;DHT22;29650;47.378;8.300;2023-06-10T08:46:00;24.40;37.90
43987;DHT22;29650;47.378;8.300;2023-06-10T08:48:29;24.60;38.40
43987;DHT22;29650;47.378;8.300;2023-06-10T08:50:57;24.40;38.00
43987;DHT22;29650;47.378;8.300;2023-06-10T08:53:26;24.20;37.10
43987;DHT22;29650;47.378;8.300;2023-06-10T08:55:54;24.50;37.70
43987;DHT22;29650;47.378;8.300;2023-06-10T08:58:25;24.70;36.40
43987;DHT22;29650;47.378;8.300;2023-06-10T09:00:54;24.80;37.20
43987;DHT22;29650;47.378;8.300;2023-06-10T09:03:21;24.80;35.70
43987;DHT22;29650;47.378;8.300;2023-06-10T09:05:51;25.00;36.40
43987;DHT22;29650;47.378;8.300;2023-06-10T09:08:18;24.70;37.00
43987;DHT22;29650;47.378;8.300;2023-06-10T09:10:45;24.70;36.30
43987;DHT22;29650;47.378;8.300;2023-06-10T09:13:12;24.70;34.80
43987;DHT22;29650;47.378;8.300;2023-06-10T09:15:41;25.00;34.80
43987;DHT22;29650;47.378;8.300;2023-06-10T09:18:08;24.70;34.20
43987;DHT22;29650;47.378;8.300;2023-06-10T09:20:35;24.90;35.10
43987;DHT22;29650;47.378;8.300;2023-06-10T09:23:04;25.10;36.00
43987;DHT22;29650;47.378;8.300;2023-06-10T09:25:35;24.20;33.90
43987;DHT22;29650;47.378;8.300;2023-06-10T09:28:04;24.60;34.00
43987;DHT22;29650;47.378;8.300;2023-06-10T09:30:32;24.80;34.50
43987;DHT22;29650;47.378;8.300;2023-06-10T09:33:00;25.00;33.50
43987;DHT22;29650;47.378;8.300;2023-06-10T09:35:30;24.90;34.40
43987;DHT22;29650;47.378;8.300;2023-06-10T09:37:58;25.10;32.40
43987;DHT22;29650;47.378;8.300;2023-06-10T09:40:27;25.30;33.10
43987;DHT22;29650;47.378;8.300;2023-06-10T09:42:55;25.40;33.20
43987;DHT22;29650;47.378;8.300;2023-06-10T09:45:23;25.50;32.20
43987;DHT22;29650;47.378;8.300;2023-06-10T09:47:51;25.60;32.50
43987;DHT22;29650;47.378;8.300;2023-06-10T09:50:19;25.90;33.10
43987;DHT22;29650;47.378;8.300;2023-06-10T09:52:47;26.10;33.20
43987;DHT22;29650;47.378;8.300;2023-06-10T09:55:14;26.20;33.10
43987;DHT22;29650;47.378;8.300;2023-06-10T09:57:42;26.10;29.60
43987;DHT22;29650;47.378;8.300;2023-06-10T10:00:14;26.10;30.00
43987;DHT22;29650;47.378;8.300;2023-06-10T10:02:45;26.00;30.00
43987;DHT22;29650;47.378;8.300;2023-06-10T10:05:13;25.90;30.00
43987;DHT22;29650;47.378;8.300;2023-06-10T10:07:41;26.00;30.10
43987;DHT22;29650;47.378;8.300;2023-06-10T10:10:09;25.30;30.70
43987;DHT22;29650;47.378;8.300;2023-06-10T10:12:37;25.80;31.90
43987;DHT22;29650;47.378;8.300;2023-06-10T10:15:07;26.20;30.40
43987;DHT22;29650;47.378;8.300;2023-06-10T10:17:35;26.40;30.10
43987;DHT22;29650;47.378;8.300;2023-06-10T10:20:05;25.30;29.90
43987;DHT22;29650;47.378;8.300;2023-06-10T10:22:35;25.80;30.80
43987;DHT22;29650;47.378;8.300;2023-06-10T10:25:07;26.00;30.50
43987;DHT22;29650;47.378;8.300;2023-06-10T10:27:40;26.20;30.40
43987;DHT22;29650;47.378;8.300;2023-06-10T10:30:13;26.50;29.40
43987;DHT22;29650;47.378;8.300;2023-06-10T10:32:57;25.80;29.50
43987;DHT22;29650;47.378;8.300;2023-06-10T10:35:25;26.20;29.40
43987;DHT22;29650;47.378;8.300;2023-06-10T10:37:53;26.40;29.60
43987;DHT22;29650;47.378;8.300;2023-06-10T10:40:22;26.80;29.70
43987;DHT22;29650;47.378;8.300;2023-06-10T10:42:50;26.60;29.30
43987;DHT22;29650;47.378;8.300;2023-06-10T10:45:21;26.50;29.10
43987;DHT22;29650;47.378;8.300;2023-06-10T10:47:54;26.30;29.20
43987;DHT22;29650;47.378;8.300;2023-06-10T10:50:23;26.40;29.80
43987;DHT22;29650;47.378;8.300;2023-06-10T10:52:56;26.80;27.80
43987;DHT22;29650;47.378;8.300;2023-06-10T10:55:26;26.80;27.50
43987;DHT22;29650;47.378;8.300;2023-06-10T10:57:58;27.30;28.60
43987;DHT22;29650;47.378;8.300;2023-06-10T11:00:29;27.40;27.30
43987;DHT22;29650;47.378;8.300;2023-06-10T11:03:04;27.20;25.70
43987;DHT22;29650;47.378;8.300;2023-06-10T11:05:35;27.20;26.30
43987;DHT22;29650;47.378;8.300;2023-06-10T11:08:03;27.60;26.60
43987;DHT22;29650;47.378;8.300;2023-06-10T11:10:31;27.80;26.20
43987;DHT22;29650;47.378;8.300;2023-06-10T11:12:58;27.60;27.00
43987;DHT22;29650;47.378;8.300;2023-06-10T11:15:26;27.90;26.10
43987;DHT22;29650;47.378;8.300;2023-06-10T11:18:12;28.40;26.90
43987;DHT22;29650;47.378;8.300;2023-06-10T11:20:52;27.90;25.80
43987;DHT22;29650;47.378;8.300;2023-06-10T11:23:39;28.00;25.70
43987;DHT22;29650;47.378;8.300;2023-06-10T11:26:10;27.80;25.20
43987;DHT22;29650;47.378;8.300;2023-06-10T11:28:37;28.00;23.70
43987;DHT22;29650;47.378;8.300;2023-06-10T11:31:04;27.90;24.20
43987;DHT22;29650;47.378;8.300;2023-06-10T11:33:32;27.80;23.80
43987;DHT22;29650;47.378;8.300;2023-06-10T11:35:59;27.90;23.30
43987;DHT22;29650;47.378;8.300;2023-06-10T11:38:26;28.10;22.90
43987;DHT22;29650;47.378;8.300;2023-06-10T11:40:55;27.90;22.80
43987;DHT22;29650;47.378;8.300;2023-06-10T11:43:22;28.10;23.30
43987;DHT22;29650;47.378;8.300;2023-06-10T11:45:54;28.00;24.80
43987;DHT22;29650;47.378;8.300;2023-06-10T11:48:22;28.30;26.40
43987;DHT22;29650;47.378;8.300;2023-06-10T11:50:52;28.60;25.30
43987;DHT22;29650;47.378;8.300;2023-06-10T11:53:19;28.80;25.10
43987;DHT22;29650;47.378;8.300;2023-06-10T11:55:48;28.90;24.60
43987;DHT22;29650;47.378;8.300;2023-06-10T11:58:15;28.80;24.00
43987;DHT22;29650;47.378;8.300;2023-06-10T12:00:46;28.80;24.80
43987;DHT22;29650;47.378;8.300;2023-06-10T12:03:13;28.90;23.70
43987;DHT22;29650;47.378;8.300;2023-06-10T12:05:40;28.80;23.80
43987;DHT22;29650;47.378;8.300;2023-06-10T12:08:12;28.60;24.00
43987;DHT22;29650;47.378;8.300;2023-06-10T12:10:40;28.60;25.60
43987;DHT22;29650;47.378;8.300;2023-06-10T12:13:08;29.20;25.10
43987;DHT22;29650;47.378;8.300;2023-06-10T12:15:35;28.50;23.40
43987;DHT22;29650;47.378;8.300;2023-06-10T12:18:03;28.50;22.80
43987;DHT22;29650;47.378;8.300;2023-06-10T12:20:31;28.30;22.10
43987;DHT22;29650;47.378;8.300;2023-06-10T12:22:59;28.20;22.00
43987;DHT22;29650;47.378;8.300;2023-06-10T12:25:28;28.20;21.70
43987;DHT22;29650;47.378;8.300;2023-06-10T12:27:58;28.40;21.00
43987;DHT22;29650;47.378;8.300;2023-06-10T12:30:26;28.60;20.20
43987;DHT22;29650;47.378;8.300;2023-06-10T12:32:53;28.60;19.40
43987;DHT22;29650;47.378;8.300;2023-06-10T12:35:21;28.40;19.80
43987;DHT22;29650;47.378;8.300;2023-06-10T12:37:57;28.80;20.50
43987;DHT22;29650;47.378;8.300;2023-06-10T12:40:28;28.60;19.90
43987;DHT22;29650;47.378;8.300;2023-06-10T12:42:55;28.90;20.00
43987;DHT22;29650;47.378;8.300;2023-06-10T12:45:30;29.20;22.10
43987;DHT22;29650;47.378;8.300;2023-06-10T12:48:08;29.20;21.20
43987;DHT22;29650;47.378;8.300;2023-06-10T12:50:35;29.10;20.10
43987;DHT22;29650;47.378;8.300;2023-06-10T12:53:03;28.70;20.50
43987;DHT22;29650;47.378;8.300;2023-06-10T12:55:32;29.00;20.60
43987;DHT22;29650;47.378;8.300;2023-06-10T12:57:59;29.20;19.60
43987;DHT22;29650;47.378;8.300;2023-06-10T13:00:27;29.30;18.70
43987;DHT22;29650;47.378;8.300;2023-06-10T13:02:56;29.10;19.70
43987;DHT22;29650;47.378;8.300;2023-06-10T13:05:25;29.00;20.10
43987;DHT22;29650;47.378;8.300;2023-06-10T13:07:55;28.90;20.40
43987;DHT22;29650;47.378;8.300;2023-06-10T13:10:22;29.10;20.90
43987;DHT22;29650;47.378;8.300;2023-06-10T13:12:50;28.70;19.40
43987;DHT22;29650;47.378;8.300;2023-06-10T13:15:17;28.70;20.20
43987;DHT22;29650;47.378;8.300;2023-06-10T13:17:44;29.00;18.80
43987;DHT22;29650;47.378;8.300;2023-06-10T13:20:14;28.80;19.60
43987;DHT22;29650;47.378;8.300;2023-06-10T13:22:42;29.30;20.90
43987;DHT22;29650;47.378;8.300;2023-06-10T13:25:09;29.60;19.10
43987;DHT22;29650;47.378;8.300;2023-06-10T13:27:36;29.40;18.50
43987;DHT22;29650;47.378;8.300;2023-06-10T13:30:07;29.50;18.50
43987;DHT22;29650;47.378;8.300;2023-06-10T13:32:34;29.80;18.40
43987;DHT22;29650;47.378;8.300;2023-06-10T13:35:01;29.40;17.70
43987;DHT22;29650;47.378;8.300;2023-06-10T13:37:29;29.50;15.90
43987;DHT22;29650;47.378;8.300;2023-06-10T13:39:56;29.60;16.80
43987;DHT22;29650;47.378;8.300;2023-06-10T13:42:23;29.70;12.80
43987;DHT22;29650;47.378;8.300;2023-06-10T13:44:51;29.70;14.50
43987;DHT22;29650;47.378;8.300;2023-06-10T13:47:20;29.80;14.90
43987;DHT22;29650;47.378;8.300;2023-06-10T13:49:47;30.20;13.20
43987;DHT22;29650;47.378;8.300;2023-06-10T13:52:14;29.80;13.40
43987;DHT22;29650;47.378;8.300;2023-06-10T13:54:41;30.00;13.60
43987;DHT22;29650;47.378;8.300;2023-06-10T13:57:08;29.90;14.40
43987;DHT22;29650;47.378;8.300;2023-06-10T13:59:36;29.90;15.30
43987;DHT22;29650;47.378;8.300;2023-06-10T14:02:03;30.20;16.60
43987;DHT22;29650;47.378;8.300;2023-06-10T14:04:32;30.40;16.00
43987;DHT22;29650;47.378;8.300;2023-06-10T14:06:59;30.40;14.20
43987;DHT22;29650;47.378;8.300;2023-06-10T14:09:26;30.30;13.80
43987;DHT22;29650;47.378;8.300;2023-06-10T14:11:53;30.20;14.30
43987;DHT22;29650;47.378;8.300;2023-06-10T14:14:20;30.30;15.20
43987;DHT22;29650;47.378;8.300;2023-06-10T14:16:47;30.30;14.50
43987;DHT22;29650;47.378;8.300;2023-06-10T14:19:14;30.00;14.40
43987;DHT22;29650;47.378;8.300;2023-06-10T14:21:43;29.80;15.20
43987;DHT22;29650;47.378;8.300;2023-06-10T14:24:10;30.00;15.20
43987;DHT22;29650;47.378;8.300;2023-06-10T14:26:36;29.80;15.10
43987;DHT22;29650;47.378;8.300;2023-06-10T14:29:03;30.10;15.00
43987;DHT22;29650;47.378;8.300;2023-06-10T14:31:30;30.60;16.70
43987;DHT22;29650;47.378;8.300;2023-06-10T14:33:57;30.70;16.00
43987;DHT22;29650;47.378;8.300;2023-06-10T14:36:24;30.80;15.00
43987;DHT22;29650;47.378;8.300;2023-06-10T14:38:52;30.50;15.10
43987;DHT22;29650;47.378;8.300;2023-06-10T14:41:19;30.60;14.00
43987;DHT22;29650;47.378;8.300;2023-06-10T14:43:47;30.80;14.30
43987;DHT22;29650;47.378;8.300;2023-06-10T14:46:14;30.90;15.10
43987;DHT22;29650;47.378;8.300;2023-06-10T14:48:41;30.90;14.10
43987;DHT22;29650;47.378;8.300;2023-06-10T14:51:08;30.80;15.10
43987;DHT22;29650;47.378;8.300;2023-06-10T14:53:35;30.90;15.00
43987;DHT22;29650;47.378;8.300;2023-06-10T14:56:04;31.00;14.50
43987;DHT22;29650;47.378;8.300;2023-06-10T14:58:31;30.90;14.00
43987;DHT22;29650;47.378;8.300;2023-06-10T15:00:57;30.70;15.40
43987;DHT22;29650;47.378;8.300;2023-06-10T15:03:25;31.10;14.40
43987;DHT22;29650;47.378;8.300;2023-06-10T15:05:51;31.00;15.20
43987;DHT22;29650;47.378;8.300;2023-06-10T15:08:18;30.90;15.10
43987;DHT22;29650;47.378;8.300;2023-06-10T15:10:45;31.00;16.00
43987;DHT22;29650;47.378;8.300;2023-06-10T15:13:15;31.20;15.60
43987;DHT22;29650;47.378;8.300;2023-06-10T15:15:41;31.00;14.30
43987;DHT22;29650;47.378;8.300;2023-06-10T15:18:08;31.20;15.20
43987;DHT22;29650;47.378;8.300;2023-06-10T15:20:35;31.20;15.30
43987;DHT22;29650;47.378;8.300;2023-06-10T15:23:02;31.10;15.80
43987;DHT22;29650;47.378;8.300;2023-06-10T15:25:29;31.40;15.60
43987;DHT22;29650;47.378;8.300;2023-06-10T15:27:56;31.60;14.60
43987;DHT22;29650;47.378;8.300;2023-06-10T15:30:24;31.30;14.20
43987;DHT22;29650;47.378;8.300;2023-06-10T15:32:51;31.70;14.00
43987;DHT22;29650;47.378;8.300;2023-06-10T15:35:18;31.60;15.20